Time;durP1;ratioP1;P1;durP2;ratioP2;P2;SDS_P1;SDS_P2;PMS_P1;PMS_P2;Temp;Humidity;BMP_temperature;BMP_pressure;BME280_temperature;BME280_humidity;BME280_pressure;Samples;Min_cycle;Max_cycle;Signal;HPM_P1;HPM_P2
2023/09/04 00:02:17;;;;;;;8.02;4.18;;;16.50;99.90;;;;;;5092166;28;20028;-74
2023/09/04 00:04:42;;;;;;;8.88;4.60;;;16.50;99.90;;;;;;5091550;28;20036;-75
2023/09/04 00:07:08;;;;;;;7.95;3.85;;;16.40;99.90;;;;;;5111923;28;20030;-74
2023/09/04 00:09:34;;;;;;;8.63;4.35;;;16.50;99.90;;;;;;5111517;28;20047;-74
2023/09/04 00:12:00;;;;;;;6.70;3.90;;;16.40;99.90;;;;;;5110983;28;20036;-76
2023/09/04 00:14:25;;;;;;;5.55;4.00;;;16.40;99.90;;;;;;5093236;28;20047;-75
2023/09/04 00:16:53;;;;;;;8.40;4.88;;;16.40;99.90;;;;;;5092206;28;20034;-74
2023/09/04 00:19:18;;;;;;;7.50;4.90;;;16.40;99.90;;;;;;5112824;28;20024;-74
2023/09/04 00:21:46;;;;;;;9.75;5.15;;;16.40;99.90;;;;;;5091444;28;20025;-75
2023/09/04 00:24:12;;;;;;;7.78;4.35;;;16.30;99.90;;;;;;5093526;28;20108;-74
2023/09/04 00:26:40;;;;;;;13.68;5.15;;;16.20;99.90;;;;;;5110937;28;20024;-75
2023/09/04 00:29:05;;;;;;;7.63;4.78;;;16.20;99.90;;;;;;5093722;28;20028;-75
2023/09/04 00:31:33;;;;;;;7.60;4.93;;;16.10;99.90;;;;;;5093882;28;20287;-75
2023/09/04 00:33:59;;;;;;;6.90;4.45;;;16.20;99.90;;;;;;5097544;28;20046;-75
2023/09/04 00:36:27;;;;;;;7.07;4.10;;;16.10;99.90;;;;;;5115025;28;20020;-75
2023/09/04 00:38:52;;;;;;;9.65;4.63;;;16.10;99.90;;;;;;5115746;28;20040;-75
2023/09/04 00:41:20;;;;;;;5.20;4.40;;;16.00;99.90;;;;;;5096753;28;20039;-75
2023/09/04 00:43:48;;;;;;;9.18;4.40;;;16.00;99.90;;;;;;5096607;28;20040;-74
2023/09/04 00:46:17;;;;;;;8.25;4.65;;;16.00;99.90;;;;;;5117408;28;20012;-74
2023/09/04 00:48:44;;;;;;;7.15;4.05;;;16.00;99.90;;;;;;5096700;28;20660;-75
2023/09/04 00:51:12;;;;;;;7.30;4.45;;;16.00;99.90;;;;;;5097249;28;20031;-74
2023/09/04 00:53:38;;;;;;;10.02;4.70;;;16.00;99.90;;;;;;5091905;28;20032;-75
2023/09/04 00:56:08;;;;;;;5.47;4.18;;;16.00;99.90;;;;;;5097411;28;20012;-75
2023/09/04 00:58:37;;;;;;;8.27;4.78;;;16.00;99.90;;;;;;5096678;28;20055;-75
2023/09/04 01:01:03;;;;;;;9.95;4.38;;;16.00;99.90;;;;;;5096614;28;20088;-74
2023/09/04 01:03:30;;;;;;;4.97;3.92;;;16.00;99.90;;;;;;5095976;28;20091;-75
2023/09/04 01:06:00;;;;;;;5.03;4.28;;;16.00;99.90;;;;;;5096476;28;20033;-75
2023/09/04 01:08:26;;;;;;;10.75;4.63;;;16.00;99.90;;;;;;5112621;28;20035;-74
2023/09/04 01:11:05;;;;;;;5.50;4.30;;;16.00;99.90;;;;;;5114729;28;20094;-75
2023/09/04 01:13:52;;;;;;;12.23;5.28;;;16.00;99.90;;;;;;5091727;28;20059;-75
2023/09/04 01:16:19;;;;;;;7.72;4.90;;;15.90;99.90;;;;;;5096907;28;20024;-75
2023/09/04 01:18:46;;;;;;;6.15;4.80;;;15.90;99.90;;;;;;5096059;28;20032;-75
2023/09/04 01:21:11;;;;;;;6.35;4.38;;;15.90;99.90;;;;;;5096827;28;20024;-75
2023/09/04 01:23:37;;;;;;;8.70;4.60;;;15.90;99.90;;;;;;5112255;28;20032;-75
2023/09/04 01:26:10;;;;;;;5.00;4.18;;;15.90;99.90;;;;;;5114563;28;20016;-74
2023/09/04 01:29:02;;;;;;;6.53;3.90;;;15.80;99.90;;;;;;5114347;28;20079;-75
2023/09/04 01:31:54;;;;;;;6.53;4.18;;;15.80;99.90;;;;;;5097409;28;20031;-74
2023/09/04 01:34:30;;;;;;;11.80;4.90;;;15.70;99.90;;;;;;5094548;28;20025;-75
2023/09/04 01:36:57;;;;;;;5.78;4.10;;;15.70;99.90;;;;;;5096011;28;20016;-74
2023/09/04 01:39:25;;;;;;;7.82;4.22;;;15.60;99.90;;;;;;5096343;28;20071;-75
2023/09/04 01:41:50;;;;;;;4.57;4.07;;;15.60;99.90;;;;;;5113610;28;20028;-74
2023/09/04 01:44:16;;;;;;;4.95;4.07;;;15.50;99.90;;;;;;5093361;28;20008;-75
2023/09/04 01:46:44;;;;;;;6.82;4.50;;;15.50;99.90;;;;;;5096399;28;20396;-74
2023/09/04 01:49:10;;;;;;;5.80;4.18;;;15.50;99.90;;;;;;5095537;28;20027;-75
2023/09/04 01:51:35;;;;;;;5.70;3.80;;;15.50;99.90;;;;;;5096409;28;20020;-75
2023/09/04 01:54:01;;;;;;;8.75;4.03;;;15.50;99.90;;;;;;5114714;28;20024;-74
2023/09/04 01:56:29;;;;;;;4.72;3.65;;;15.50;99.90;;;;;;5095955;28;20054;-74
2023/09/04 01:58:57;;;;;;;5.90;4.30;;;15.60;99.90;;;;;;5113557;28;20056;-74
2023/09/04 02:01:25;;;;;;;6.25;4.30;;;15.50;99.90;;;;;;5114735;28;20020;-74
2023/09/04 02:03:57;;;;;;;5.63;3.92;;;15.50;99.90;;;;;;5094186;28;20028;-74
2023/09/04 02:06:23;;;;;;;;;;;15.40;99.90;;;;;;5114234;28;20027;-74
2023/09/04 02:08:49;;;;;;;4.82;4.30;;;15.40;99.90;;;;;;5096287;28;20348;-74
2023/09/04 02:11:15;;;;;;;5.60;4.10;;;15.30;99.90;;;;;;5112833;28;20042;-74
2023/09/04 02:13:45;;;;;;;5.95;4.38;;;15.20;99.90;;;;;;5096133;28;20054;-75
2023/09/04 02:16:11;;;;;;;4.90;4.18;;;15.20;99.90;;;;;;5096489;28;21070;-75
2023/09/04 02:18:39;;;;;;;8.88;4.18;;;15.20;99.90;;;;;;5093771;28;20040;-75
2023/09/04 02:21:06;;;;;;;8.40;4.18;;;15.20;99.90;;;;;;5113362;28;20016;-75
2023/09/04 02:23:32;;;;;;;5.00;3.67;;;15.20;99.90;;;;;;5094747;28;20034;-74
2023/09/04 02:26:00;;;;;;;5.82;3.80;;;15.20;99.90;;;;;;5094761;28;20031;-75
2023/09/04 02:28:26;;;;;;;5.35;4.22;;;15.10;99.90;;;;;;5096031;28;20070;-74
2023/09/04 02:30:54;;;;;;;5.38;4.18;;;15.00;99.90;;;;;;5095425;28;20016;-74
2023/09/04 02:33:19;;;;;;;10.77;4.55;;;14.90;99.90;;;;;;5095277;28;20039;-74
2023/09/04 02:35:51;;;;;;;10.65;4.45;;;14.90;99.90;;;;;;5093976;28;20016;-74
2023/09/04 02:38:19;;;;;;;8.95;3.97;;;15.00;99.90;;;;;;5093220;28;20046;-75
2023/09/04 02:40:47;;;;;;;10.27;5.00;;;15.00;99.90;;;;;;5094620;28;20084;-74
2023/09/04 02:43:15;;;;;;;7.20;4.22;;;14.90;99.90;;;;;;5112244;28;20055;-74
2023/09/04 02:45:41;;;;;;;5.22;4.13;;;14.90;99.90;;;;;;5096040;28;20004;-74
2023/09/04 02:48:08;;;;;;;6.35;4.35;;;14.90;99.90;;;;;;5093070;28;20019;-74
2023/09/04 02:50:34;;;;;;;6.93;4.22;;;14.90;99.90;;;;;;5094611;28;20032;-74
2023/09/04 02:53:00;;;;;;;8.07;4.72;;;14.80;99.90;;;;;;5113694;28;20027;-74
2023/09/04 02:55:26;;;;;;;8.52;4.57;;;14.90;99.90;;;;;;5112168;28;20020;-75
2023/09/04 02:57:51;;;;;;;7.72;4.32;;;14.80;99.90;;;;;;5113164;28;20024;-74
2023/09/04 03:00:19;;;;;;;11.35;4.20;;;14.80;99.90;;;;;;5092576;28;20056;-74
2023/09/04 03:02:47;;;;;;;6.73;4.80;;;14.70;99.90;;;;;;5112998;28;20024;-74
2023/09/04 03:05:13;;;;;;;8.70;4.32;;;14.70;99.90;;;;;;5093607;28;20019;-75
2023/09/04 03:07:38;;;;;;;6.70;5.03;;;14.70;99.90;;;;;;5093910;28;20036;-74
2023/09/04 03:10:04;;;;;;;7.07;4.20;;;14.60;99.90;;;;;;5094913;28;20016;-74
2023/09/04 03:12:31;;;;;;;9.90;4.65;;;14.60;99.90;;;;;;5092876;28;20020;-74
2023/09/04 03:14:58;;;;;;;4.83;4.30;;;14.60;99.90;;;;;;5094525;28;20213;-74
2023/09/04 03:17:25;;;;;;;6.93;4.27;;;14.60;99.90;;;;;;5094031;28;20048;-75
2023/09/04 03:19:53;;;;;;;8.88;4.57;;;14.50;99.90;;;;;;5095667;28;20026;-75
2023/09/04 03:22:18;;;;;;;6.10;4.53;;;14.50;99.90;;;;;;5094326;28;20098;-75
2023/09/04 03:24:44;;;;;;;6.20;4.20;;;14.50;99.90;;;;;;5093673;28;20234;-77
2023/09/04 03:27:12;;;;;;;6.55;3.70;;;14.50;99.90;;;;;;5112723;28;20035;-74
2023/09/04 03:29:38;;;;;;;6.93;4.20;;;14.50;99.90;;;;;;5094281;28;20022;-74
2023/09/04 03:32:04;;;;;;;9.70;4.65;;;14.40;99.90;;;;;;5093421;28;20016;-74
2023/09/04 03:34:32;;;;;;;6.30;4.47;;;14.40;99.90;;;;;;5095256;28;20024;-74
2023/09/04 03:36:57;;;;;;;9.77;4.87;;;14.40;99.90;;;;;;5095065;28;20031;-74
2023/09/04 03:39:24;;;;;;;7.70;4.93;;;14.40;99.90;;;;;;5094588;28;20184;-74
2023/09/04 03:41:52;;;;;;;7.17;4.47;;;14.40;99.90;;;;;;5094756;28;20016;-74
2023/09/04 03:44:18;;;;;;;7.32;4.78;;;14.40;99.90;;;;;;5091546;28;20090;-74
2023/09/04 03:46:43;;;;;;;7.18;4.50;;;14.40;99.90;;;;;;5095201;28;20024;-75
2023/09/04 03:49:09;;;;;;;5.32;4.30;;;14.40;99.90;;;;;;5095693;28;20028;-74
2023/09/04 03:51:35;;;;;;;7.75;4.53;;;14.40;99.90;;;;;;5113295;28;20088;-76
2023/09/04 03:54:03;;;;;;;6.43;5.20;;;14.40;99.90;;;;;;5112600;28;20024;-74
2023/09/04 03:56:37;;;;;;;6.90;4.13;;;14.40;99.90;;;;;;5092975;28;20222;-76
2023/09/04 03:59:02;;;;;;;8.60;4.90;;;14.40;99.90;;;;;;5092891;28;20024;-75
2023/09/04 04:01:29;;;;;;;6.15;3.92;;;14.30;99.90;;;;;;5112353;28;20049;-74
2023/09/04 04:03:57;;;;;;;6.65;4.45;;;14.30;99.90;;;;;;5094173;28;20026;-74
2023/09/04 04:06:23;;;;;;;9.27;4.67;;;14.20;99.90;;;;;;5092717;28;20012;-75
2023/09/04 04:08:52;;;;;;;9.17;4.97;;;14.20;99.90;;;;;;5094558;28;20046;-75
2023/09/04 04:11:20;;;;;;;5.67;4.63;;;14.10;99.90;;;;;;5090875;28;20024;-74
2023/09/04 04:13:47;;;;;;;12.50;5.07;;;14.00;99.90;;;;;;5094303;28;20051;-75
2023/09/04 04:16:13;;;;;;;9.93;5.83;;;14.00;99.90;;;;;;5111820;28;20023;-75
2023/09/04 04:18:38;;;;;;;6.33;4.60;;;14.00;99.90;;;;;;5094564;28;20063;-74
2023/09/04 04:21:06;;;;;;;10.75;5.30;;;13.90;99.90;;;;;;5092347;28;20016;-74
2023/09/04 04:23:33;;;;;;;7.17;4.57;;;14.00;99.90;;;;;;5092502;28;20024;-75
2023/09/04 04:26:03;;;;;;;8.30;4.70;;;13.90;99.90;;;;;;5092245;28;20024;-74
2023/09/04 04:28:29;;;;;;;12.23;5.63;;;13.90;99.90;;;;;;5092764;28;20028;-74
2023/09/04 04:30:57;;;;;;;7.93;5.07;;;13.90;99.90;;;;;;5093986;28;20019;-74
2023/09/04 04:33:23;;;;;;;7.47;5.20;;;13.80;99.90;;;;;;5093062;28;20119;-74
2023/09/04 04:35:57;;;;;;;10.57;4.63;;;13.80;99.90;;;;;;5089743;28;20016;-75
2023/09/04 04:38:23;;;;;;;7.80;5.80;;;13.80;99.90;;;;;;5093051;28;20040;-75
2023/09/04 04:40:49;;;;;;;6.33;4.60;;;13.80;99.90;;;;;;5092567;28;20083;-74
2023/09/04 04:43:16;;;;;;;6.73;5.53;;;13.70;99.90;;;;;;5111812;28;20032;-74
2023/09/04 04:45:43;;;;;;;7.83;4.57;;;13.80;99.90;;;;;;5111838;28;20023;-75
2023/09/04 04:48:13;;;;;;;9.83;5.07;;;13.70;99.90;;;;;;5092477;28;20104;-75
2023/09/04 04:50:39;;;;;;;9.30;4.83;;;13.80;99.90;;;;;;5111700;28;20017;-75
2023/09/04 04:53:04;;;;;;;6.97;5.10;;;13.70;99.90;;;;;;5091428;28;20024;-74
2023/09/04 04:55:30;;;;;;;11.00;5.10;;;13.70;99.90;;;;;;5093984;28;20024;-74
2023/09/04 04:57:55;;;;;;;9.83;5.13;;;13.80;99.90;;;;;;5092143;28;20024;-75
2023/09/04 05:00:26;;;;;;;8.93;4.80;;;13.70;99.90;;;;;;5092988;28;20038;-73
2023/09/04 05:02:54;;;;;;;6.77;4.60;;;13.70;99.90;;;;;;5093113;28;20028;-75
2023/09/04 05:05:22;;;;;;;11.27;4.77;;;13.70;99.90;;;;;;5087677;28;20023;-75
2023/09/04 05:07:48;;;;;;;9.73;4.47;;;13.70;99.90;;;;;;5111578;28;20032;-75
2023/09/04 05:10:14;;;;;;;11.30;4.73;;;13.70;99.90;;;;;;5091946;28;20027;-74
2023/09/04 05:12:39;;;;;;;9.20;5.10;;;13.70;99.90;;;;;;5092574;28;20043;-75
2023/09/04 05:15:06;;;;;;;7.10;5.27;;;13.70;99.90;;;;;;5111841;28;20010;-75
2023/09/04 05:17:32;;;;;;;9.53;5.43;;;13.70;99.90;;;;;;5095768;28;20062;-75
2023/09/04 05:20:00;;;;;;;8.27;4.63;;;13.70;99.90;;;;;;5095791;28;20036;-74
2023/09/04 05:22:26;;;;;;;11.00;5.47;;;13.70;99.90;;;;;;5095832;28;20036;-74
2023/09/04 05:24:54;;;;;;;8.13;4.40;;;13.70;99.90;;;;;;5115119;28;20017;-75
2023/09/04 05:27:25;;;;;;;6.93;5.10;;;13.70;99.90;;;;;;5095985;28;20012;-75
2023/09/04 05:29:54;;;;;;;6.73;5.13;;;13.70;99.90;;;;;;5115228;28;20020;-74
2023/09/04 05:32:20;;;;;;;11.83;5.30;;;13.80;99.90;;;;;;5114935;28;20028;-74
2023/09/04 05:34:50;;;;;;;8.87;5.03;;;13.70;99.90;;;;;;5096046;28;20050;-75
2023/09/04 05:37:24;;;;;;;6.93;5.50;;;13.80;99.90;;;;;;5115046;28;20027;-78
2023/09/04 05:39:53;;;;;;;7.83;5.40;;;13.80;99.90;;;;;;5095024;28;20092;-74
2023/09/04 05:42:19;;;;;;;10.37;5.57;;;13.80;99.90;;;;;;5115055;28;20019;-76
2023/09/04 05:44:44;;;;;;;9.60;5.53;;;13.80;99.90;;;;;;5115414;28;20042;-74
2023/09/04 05:47:10;;;;;;;8.53;5.53;;;13.90;99.90;;;;;;5095499;28;20031;-74
2023/09/04 05:49:38;;;;;;;9.30;6.00;;;13.90;99.90;;;;;;5096285;28;20024;-75
2023/09/04 05:52:04;;;;;;;10.57;5.77;;;13.90;99.90;;;;;;5094507;28;20016;-74
2023/09/04 05:54:30;;;;;;;9.87;6.30;;;14.00;99.90;;;;;;5097098;28;20038;-75
2023/09/04 05:56:55;;;;;;;9.70;6.07;;;14.00;99.90;;;;;;5095497;28;20028;-76
2023/09/04 05:59:21;;;;;;;9.27;6.00;;;14.10;99.90;;;;;;5095556;28;20035;-74
2023/09/04 06:01:49;;;;;;;16.20;6.27;;;14.10;99.90;;;;;;5095216;28;20031;-74
2023/09/04 06:04:14;;;;;;;8.95;5.72;;;14.10;99.90;;;;;;5095254;28;20020;-75
2023/09/04 06:06:42;;;;;;;11.47;5.80;;;14.20;99.90;;;;;;5095242;28;20016;-75
2023/09/04 06:09:12;;;;;;;7.50;5.17;;;14.30;99.90;;;;;;5095616;28;20084;-74
2023/09/04 06:11:45;;;;;;;8.88;5.60;;;14.20;99.90;;;;;;5096105;28;20023;-75
2023/09/04 06:14:11;;;;;;;12.77;5.33;;;14.30;99.90;;;;;;5095793;28;20016;-75
2023/09/04 06:16:39;;;;;;;10.75;5.40;;;14.40;99.90;;;;;;5114679;28;20043;-74
2023/09/04 06:19:04;;;;;;;10.10;5.47;;;14.40;99.90;;;;;;5094653;28;20028;-75
2023/09/04 06:21:30;;;;;;;11.77;5.47;;;14.50;99.90;;;;;;5114079;28;20040;-75
2023/09/04 06:23:56;;;;;;;8.57;5.45;;;14.50;99.90;;;;;;5114029;28;20009;-75
2023/09/04 06:26:21;;;;;;;8.52;5.43;;;14.50;99.90;;;;;;5093619;28;20044;-75
2023/09/04 06:28:49;;;;;;;13.68;5.45;;;14.50;99.90;;;;;;5092325;28;20054;-75
2023/09/04 06:31:17;;;;;;;6.40;4.82;;;14.60;99.90;;;;;;5093734;28;20040;-75
2023/09/04 06:33:43;;;;;;;7.18;5.30;;;14.60;99.90;;;;;;5095158;28;20032;-74
2023/09/04 06:36:09;;;;;;;11.75;5.57;;;14.70;99.90;;;;;;5113605;28;20027;-75
2023/09/04 06:38:37;;;;;;;7.30;5.32;;;14.70;99.90;;;;;;5113491;28;20044;-75
2023/09/04 06:41:02;;;;;;;10.93;5.82;;;14.80;99.90;;;;;;5093788;28;20020;-75
2023/09/04 06:43:29;;;;;;;11.57;6.47;;;14.80;99.90;;;;;;5113430;28;20039;-75
2023/09/04 06:45:55;;;;;;;7.55;6.07;;;14.90;99.90;;;;;;5112592;28;20016;-74
2023/09/04 06:48:21;;;;;;;9.27;5.15;;;15.00;99.90;;;;;;5113196;28;20039;-75
2023/09/04 06:50:54;;;;;;;6.28;3.88;;;15.10;99.90;;;;;;5093534;28;20050;-75
2023/09/04 06:53:20;;;;;;;9.30;3.45;;;15.10;99.90;;;;;;5094497;28;20031;-75
2023/09/04 06:55:52;;;;;;;5.13;3.45;;;15.20;99.90;;;;;;5094004;28;20016;-74
2023/09/04 06:58:19;;;;;;;7.90;3.93;;;15.30;99.90;;;;;;5112438;28;20047;-75
2023/09/04 07:00:47;;;;;;;8.20;3.53;;;15.40;99.90;;;;;;5091497;28;20284;-74
2023/09/04 07:03:15;;;;;;;6.03;3.65;;;15.40;99.90;;;;;;5094318;28;20019;-75
2023/09/04 07:05:41;;;;;;;6.70;3.90;;;15.50;99.90;;;;;;5113178;28;20024;-75
2023/09/04 07:08:07;;;;;;;13.30;4.70;;;15.50;99.90;;;;;;5094025;28;20042;-74
2023/09/04 07:10:32;;;;;;;14.95;4.68;;;15.60;99.90;;;;;;5092674;28;20032;-75
2023/09/04 07:13:05;;;;;;;4.47;3.60;;;15.60;99.90;;;;;;5112641;28;20035;-75
2023/09/04 07:15:31;;;;;;;6.20;3.80;;;15.70;99.90;;;;;;5112996;28;20024;-75
2023/09/04 07:18:00;;;;;;;5.95;3.03;;;15.70;99.90;;;;;;5113236;28;21340;-74
2023/09/04 07:20:29;;;;;;;6.47;3.33;;;15.80;99.90;;;;;;5094109;28;20016;-74
2023/09/04 07:22:54;;;;;;;5.68;4.60;;;15.80;99.90;;;;;;5113039;28;20036;-75
2023/09/04 07:25:21;;;;;;;7.38;4.88;;;15.80;99.90;;;;;;5112103;28;20028;-74
2023/09/04 07:27:47;;;;;;;12.70;3.35;;;15.80;99.90;;;;;;5112258;28;20008;-75
2023/09/04 07:30:13;;;;;;;6.45;3.28;;;15.90;99.90;;;;;;5095226;28;20043;-75
2023/09/04 07:32:38;;;;;;;12.23;4.65;;;16.00;99.90;;;;;;5093268;28;20012;-75
2023/09/04 07:35:07;;;;;;;6.22;3.58;;;16.00;99.90;;;;;;5093371;28;20024;-75
2023/09/04 07:37:32;;;;;;;5.28;3.33;;;16.00;99.90;;;;;;5112591;28;20048;-75
2023/09/04 07:39:58;;;;;;;5.97;3.75;;;16.10;99.90;;;;;;5112584;28;20034;-75
2023/09/04 07:42:26;;;;;;;5.60;3.40;;;16.10;99.90;;;;;;5092690;28;20051;-74
2023/09/04 07:44:54;;;;;;;4.45;2.90;;;16.10;99.90;;;;;;5094827;28;20032;-75
2023/09/04 07:47:20;;;;;;;6.75;3.25;;;16.20;99.90;;;;;;5089623;28;20024;-74
2023/09/04 07:49:48;;;;;;;3.30;2.10;;;16.20;99.90;;;;;;5094025;28;20028;-74
2023/09/04 07:52:14;;;;;;;3.97;2.63;;;16.30;99.90;;;;;;5093749;28;20020;-75
2023/09/04 07:54:39;;;;;;;3.20;2.35;;;16.40;99.90;;;;;;5094633;28;20020;-76
2023/09/04 07:57:08;;;;;;;5.78;3.90;;;16.50;99.90;;;;;;5092694;28;20067;-74
2023/09/04 07:59:34;;;;;;;4.38;2.92;;;16.60;99.90;;;;;;5112086;28;20154;-75
2023/09/04 08:02:03;;;;;;;6.05;2.58;;;16.60;99.90;;;;;;5092592;28;20008;-76
2023/09/04 08:04:29;;;;;;;4.72;2.05;;;16.70;99.90;;;;;;5112688;28;20024;-76
2023/09/04 08:07:00;;;;;;;3.85;1.95;;;16.80;99.90;;;;;;5094751;28;20028;-74
2023/09/04 08:09:28;;;;;;;4.80;2.37;;;16.80;99.90;;;;;;5094173;28;20092;-76
2023/09/04 08:11:54;;;;;;;3.42;2.17;;;16.90;99.90;;;;;;5089439;28;20320;-76
2023/09/04 08:14:21;;;;;;;3.28;2.20;;;17.00;99.90;;;;;;5087392;28;20032;-80
2023/09/04 08:16:47;;;;;;;3.40;2.22;;;17.10;99.90;;;;;;5102865;28;20028;-77
2023/09/04 08:19:15;;;;;;;6.55;2.03;;;17.10;99.90;;;;;;5094571;28;20037;-80
2023/09/04 08:21:41;;;;;;;3.50;2.22;;;17.10;99.90;;;;;;5075099;28;20024;-82
2023/09/04 08:24:09;;;;;;;6.90;2.45;;;17.20;99.90;;;;;;5079340;28;20028;-77
2023/09/04 08:26:34;;;;;;;3.78;2.22;;;17.30;99.90;;;;;;5096162;28;20032;-79
2023/09/04 08:29:00;;;;;;;3.42;2.00;;;17.40;99.90;;;;;;5093831;28;20501;-81
2023/09/04 08:31:25;;;;;;;3.22;2.45;;;17.40;99.90;;;;;;5089884;28;20040;-82
2023/09/04 08:33:51;;;;;;;4.38;2.53;;;17.50;99.90;;;;;;5087764;28;20115;-82
2023/09/04 08:36:17;;;;;;;4.93;2.40;;;17.50;99.90;;;;;;5087179;28;20043;-80
2023/09/04 08:38:42;;;;;;;4.75;2.05;;;17.50;99.90;;;;;;5068400;28;20043;-82
2023/09/04 08:41:11;;;;;;;5.43;2.28;;;17.50;99.90;;;;;;5069884;28;20414;-81
2023/09/04 08:43:38;;;;;;;4.05;2.47;;;17.60;99.90;;;;;;5068282;28;20028;-84
2023/09/04 08:46:06;;;;;;;4.63;2.38;;;17.70;99.90;;;;;;5069820;28;20429;-84
2023/09/04 08:48:37;;;;;;;4.78;2.47;;;17.80;99.90;;;;;;5087644;28;20506;-80
2023/09/04 08:51:03;;;;;;;4.38;2.63;;;17.80;99.90;;;;;;5069631;28;20036;-82
2023/09/04 08:53:28;;;;;;;4.28;2.67;;;17.90;99.90;;;;;;5071321;28;20081;-81
2023/09/04 08:55:55;;;;;;;3.33;2.03;;;18.00;99.90;;;;;;5070898;28;20024;-83
2023/09/04 08:58:24;;;;;;;3.08;2.22;;;18.00;99.90;;;;;;5072060;28;20066;-84
2023/09/04 09:00:50;;;;;;;6.18;2.80;;;18.10;99.90;;;;;;5089565;28;20461;-83
2023/09/04 09:03:19;;;;;;;4.35;2.20;;;18.20;99.90;;;;;;5072548;28;20028;-85
2023/09/04 09:05:47;;;;;;;3.58;2.28;;;18.30;99.90;;;;;;5072902;28;20027;-81
2023/09/04 09:08:14;;;;;;;4.28;2.45;;;18.30;99.90;;;;;;5073194;28;20060;-86
2023/09/04 09:10:40;;;;;;;2.75;2.30;;;18.40;99.90;;;;;;5075454;28;20101;-83
2023/09/04 09:13:07;;;;;;;10.48;3.15;;;18.40;99.90;;;;;;5091047;28;20107;-80
2023/09/04 09:15:33;;;;;;;7.80;3.35;;;18.50;99.90;;;;;;5090218;28;20054;-83
2023/09/04 09:17:59;;;;;;;3.08;2.10;;;18.50;99.90;;;;;;5071121;28;21652;-83
2023/09/04 09:20:39;;;;;;;4.03;2.17;;;18.50;99.90;;;;;;5071546;28;20039;-83
2023/09/04 09:23:05;;;;;;;5.90;2.38;;;18.60;99.90;;;;;;5069171;28;20034;-83
2023/09/04 09:25:32;;;;;;;5.47;2.10;;;18.60;99.90;;;;;;5090347;28;20510;-82
2023/09/04 09:28:01;;;;;;;2.45;1.80;;;18.70;99.90;;;;;;5071811;28;20043;-83
2023/09/04 09:30:35;;;;;;;3.15;2.13;;;18.70;99.90;;;;;;5071681;28;20098;-83
2023/09/04 09:33:04;;;;;;;4.40;2.30;;;18.80;99.90;;;;;;5070656;28;20935;-85
2023/09/04 09:35:31;;;;;;;4.20;2.20;;;18.90;99.90;;;;;;5065445;28;20061;-85
2023/09/04 09:38:01;;;;;;;5.55;2.22;;;19.00;99.90;;;;;;5070452;28;20034;-86
2023/09/04 09:40:28;;;;;;;7.57;2.35;;;19.00;99.90;;;;;;5068242;28;20113;-85
2023/09/04 09:42:54;;;;;;;4.35;2.13;;;19.10;99.90;;;;;;5069397;28;20028;-84
2023/09/04 09:45:20;;;;;;;3.40;2.30;;;19.20;99.90;;;;;;5070543;28;20035;-84
2023/09/04 09:47:49;;;;;;;6.72;2.35;;;19.20;99.90;;;;;;5071452;28;20530;-86
2023/09/04 09:50:15;;;;;;;5.18;2.25;;;19.30;99.90;;;;;;5069859;28;20036;-85
2023/09/04 09:53:00;;;;;;;9.32;2.70;;;19.30;99.90;;;;;;5070699;28;20028;-85
2023/09/04 09:55:28;;;;;;;5.30;2.20;;;19.40;99.90;;;;;;5090303;28;20080;-81
2023/09/04 09:57:55;;;;;;;3.05;2.08;;;19.40;99.90;;;;;;5089628;28;20016;-84
2023/09/04 10:00:21;;;;;;;2.92;1.90;;;19.40;99.90;;;;;;5072856;28;20097;-85
2023/09/04 10:02:47;;;;;;;6.28;2.20;;;19.40;99.90;;;;;;5071582;28;20114;-83
2023/09/04 10:05:13;;;;;;;3.00;2.20;;;19.50;99.90;;;;;;5089642;28;20165;-86
2023/09/04 10:07:39;;;;;;;5.20;2.30;;;19.60;99.90;;;;;;5092921;28;20290;-83
2023/09/04 10:10:06;;;;;;;3.70;2.17;;;19.60;99.90;;;;;;5070726;28;20028;-84
2023/09/04 10:12:59;;;;;;;3.22;2.10;;;19.50;99.90;;;;;;5090713;28;20098;-85
2023/09/04 10:15:25;;;;;;;4.53;2.45;;;19.50;99.90;;;;;;5083786;28;20031;-85
2023/09/04 10:17:54;;;;;;;2.72;2.00;;;19.60;99.90;;;;;;5075496;28;20034;-83
2023/09/04 10:20:22;;;;;;;5.97;2.22;;;19.60;99.90;;;;;;5088716;28;20028;-84
2023/09/04 10:22:54;;;;;;;4.50;1.50;;;19.70;99.90;;;;;;5089385;28;20417;-83
2023/09/04 10:25:52;;;;;;;3.90;2.10;;;19.60;99.90;;;;;;5091813;28;20074;-84
2023/09/04 10:28:23;;;;;;;4.15;1.80;;;19.70;99.90;;;;;;5093101;28;20103;-83
2023/09/04 10:30:55;;;;;;;1.75;1.58;;;19.70;99.90;;;;;;5070575;28;20032;-84
2023/09/04 10:33:20;;;;;;;2.95;1.75;;;19.80;99.90;;;;;;5067508;28;20094;-85
2023/09/04 10:35:47;;;;;;;2.50;1.63;;;19.80;99.90;;;;;;5069982;28;20572;-80
2023/09/04 10:38:13;;;;;;;4.78;2.10;;;19.80;99.90;;;;;;5072329;28;20102;-84
2023/09/04 10:40:40;;;;;;;3.90;1.52;;;19.90;99.90;;;;;;5069418;28;20035;-83
2023/09/04 10:43:08;;;;;;;3.63;1.80;;;20.10;99.90;;;;;;5087790;28;20040;-83
2023/09/04 10:45:34;;;;;;;3.28;1.75;;;20.20;99.90;;;;;;5069969;28;20054;-82
2023/09/04 10:48:02;;;;;;;2.63;1.83;;;20.30;99.90;;;;;;5086936;28;20059;-84
2023/09/04 10:50:28;;;;;;;4.63;1.70;;;20.40;99.90;;;;;;5065120;28;20056;-83
2023/09/04 10:52:56;;;;;;;4.15;2.00;;;20.50;99.90;;;;;;5064457;28;20071;-85
2023/09/04 10:55:24;;;;;;;2.53;2.03;;;20.60;99.90;;;;;;5068012;28;20028;-83
2023/09/04 10:57:58;;;;;;;4.47;2.30;;;20.70;99.90;;;;;;5074122;28;20051;-83
2023/09/04 11:00:30;;;;;;;3.25;1.52;;;20.80;99.90;;;;;;5070326;28;20028;-84
2023/09/04 11:03:20;;;;;;;3.67;1.95;;;20.90;99.90;;;;;;5090351;28;20020;-83
2023/09/04 11:06:07;;;;;;;4.20;2.20;;;21.00;99.90;;;;;;5086977;28;20047;-85
2023/09/04 11:08:35;;;;;;;3.90;2.13;;;21.00;99.90;;;;;;5067990;28;20176;-84
2023/09/04 11:11:05;;;;;;;2.38;1.48;;;21.20;99.90;;;;;;5068541;28;20076;-84
2023/09/04 11:13:44;;;;;;;5.78;1.65;;;21.30;99.90;;;;;;5087337;28;20044;-84
2023/09/04 11:16:15;;;;;;;5.05;2.10;;;21.40;99.90;;;;;;5091294;28;20087;-82
2023/09/04 11:18:40;;;;;;;4.13;1.70;;;21.50;99.90;;;;;;5068773;28;20051;-84
2023/09/04 11:21:10;;;;;;;2.25;1.50;;;21.60;99.90;;;;;;5067893;28;20441;-80
2023/09/04 11:23:38;;;;;;;3.80;1.70;;;21.70;99.90;;;;;;5068430;28;20537;-82
2023/09/04 11:26:04;;;;;;;3.22;1.70;;;21.80;99.90;;;;;;5070669;28;20024;-85
2023/09/04 11:28:30;;;;;;;3.53;1.90;;;21.90;99.90;;;;;;5066050;28;20047;-81
2023/09/04 11:31:00;;;;;;;3.53;1.48;;;22.00;99.90;;;;;;5067773;28;20120;-84
2023/09/04 11:33:26;;;;;;;2.50;1.55;;;22.10;99.90;;;;;;5066698;28;20543;-84
2023/09/04 11:36:06;;;;;;;9.98;2.00;;;22.20;99.90;;;;;;5068612;28;20036;-84
2023/09/04 11:38:35;;;;;;;3.28;1.67;;;22.20;99.90;;;;;;5067798;28;20643;-84
2023/09/04 11:41:14;;;;;;;3.85;1.90;;;22.20;99.90;;;;;;5067754;28;20038;-84
2023/09/04 11:43:41;;;;;;;4.20;1.85;;;22.30;99.90;;;;;;5068196;28;20058;-82
2023/09/04 11:46:11;;;;;;;5.90;2.03;;;22.30;99.90;;;;;;5085630;28;20103;-82
2023/09/04 11:48:39;;;;;;;4.22;1.65;;;22.40;99.90;;;;;;5063745;28;20119;-83
2023/09/04 11:51:04;;;;;;;4.65;1.92;;;22.50;99.90;;;;;;5067965;28;20032;-85
2023/09/04 11:53:33;;;;;;;2.70;1.95;;;22.50;99.90;;;;;;5067091;28;20028;-82
2023/09/04 11:55:59;;;;;;;8.15;1.73;;;22.60;99.90;;;;;;5065323;28;20020;-84
2023/09/04 11:58:25;;;;;;;4.05;1.92;;;22.60;99.90;;;;;;5066531;28;20834;-83
2023/09/04 12:00:51;;;;;;;2.92;2.08;;;22.70;99.90;;;;;;5067359;28;20027;-83
2023/09/04 12:03:17;;;;;;;2.75;2.00;;;22.70;99.90;;;;;;5066302;28;20043;-82
2023/09/04 12:05:42;;;;;;;4.57;1.83;;;22.70;99.90;;;;;;5066146;28;20028;-84
2023/09/04 12:08:11;;;;;;;5.78;1.55;;;22.80;99.90;;;;;;5084973;28;20498;-84
2023/09/04 12:10:40;;;;;;;4.90;2.20;;;22.80;99.90;;;;;;5066974;28;20036;-80
2023/09/04 12:13:05;;;;;;;5.88;1.95;;;22.80;99.90;;;;;;5065086;28;20020;-84
2023/09/04 12:15:38;;;;;;;4.57;1.63;;;22.90;99.90;;;;;;5065946;28;20036;-82
2023/09/04 12:18:06;;;;;;;5.22;2.40;;;22.90;99.90;;;;;;5085926;28;20119;-84
2023/09/04 12:20:45;;;;;;;2.92;1.80;;;22.90;99.90;;;;;;5085270;28;20020;-83
2023/09/04 12:23:11;;;;;;;5.63;1.95;;;23.00;99.90;;;;;;5067560;28;20038;-84
2023/09/04 12:25:38;;;;;;;3.88;1.83;;;23.10;99.90;;;;;;5085555;28;20028;-84
2023/09/04 12:28:14;;;;;;;3.42;1.98;;;23.20;99.90;;;;;;5066151;28;20024;-82
2023/09/04 12:30:50;;;;;;;4.13;2.10;;;23.40;99.90;;;;;;5071440;28;20123;-84
2023/09/04 12:33:18;;;;;;;3.97;2.25;;;23.50;99.90;;;;;;5089429;28;20020;-84
2023/09/04 12:35:58;;;;;;;3.10;1.80;;;23.60;99.90;;;;;;5067538;28;20028;-83
2023/09/04 12:38:24;;;;;;;9.80;2.80;;;23.60;99.90;;;;;;5072063;28;20038;-80
2023/09/04 12:40:49;;;;;;;3.13;1.67;;;23.70;99.90;;;;;;5068749;28;20036;-84
2023/09/04 12:43:17;;;;;;;3.67;1.85;;;23.80;99.90;;;;;;5070516;28;20038;-81
2023/09/04 12:45:43;;;;;;;2.28;1.27;;;23.80;99.90;;;;;;5071960;28;20035;-84
2023/09/04 12:48:15;;;;;;;3.15;1.85;;;23.90;99.90;;;;;;5089063;28;20032;-82
2023/09/04 12:50:41;;;;;;;2.65;1.95;;;23.90;99.90;;;;;;5089271;28;20047;-83